createdAt,value
2023-02-06T00:01:35.539Z,103493.72
2023-02-06T00:04:02.473Z,103492.00
2023-02-06T00:06:29.796Z,103489.47
2023-02-06T00:08:56.727Z,103498.09
2023-02-06T00:11:24.490Z,103501.66
2023-02-06T00:13:51.825Z,103498.00
2023-02-06T00:16:33.559Z,103503.34
2023-02-06T00:19:01.246Z,103513.94
2023-02-06T00:21:29.986Z,103519.09
2023-02-06T00:23:59.727Z,103524.16
2023-02-06T00:26:27.706Z,103511.13
2023-02-06T00:28:54.734Z,103516.28
2023-02-06T00:31:22.113Z,103511.13
2023-02-06T00:33:49.408Z,103513.75
2023-02-06T00:36:16.726Z,103512.16
2023-02-06T00:38:43.675Z,103518.91
2023-02-06T00:41:10.649Z,103527.53
2023-02-06T00:43:37.846Z,103531.66
2023-02-06T00:46:05.126Z,103517.59
2023-02-06T00:48:32.611Z,103512.38
2023-02-06T00:50:59.799Z,103524.47
2023-02-06T00:53:26.865Z,103518.28
2023-02-06T00:55:53.903Z,103513.88
2023-02-06T00:58:22.047Z,103514.53
2023-02-06T01:00:49.223Z,103514.44
2023-02-06T01:03:17.022Z,103522.22
2023-02-06T01:05:44.113Z,103516.13
2023-02-06T01:08:11.650Z,103512.56
2023-02-06T01:10:42.584Z,103514.25
2023-02-06T01:13:10.372Z,103515.94
2023-02-06T01:15:38.899Z,103505.44
2023-02-06T01:18:05.919Z,103501.03
2023-02-06T01:20:32.999Z,103507.97
2023-02-06T01:22:59.972Z,103509.66
2023-02-06T01:25:27.074Z,103520.06
2023-02-06T01:27:54.130Z,103512.28
2023-02-06T01:30:21.163Z,103519.13
2023-02-06T01:32:48.390Z,103522.59
2023-02-06T01:35:16.107Z,103520.81
2023-02-06T01:37:43.048Z,103510.31
2023-02-06T01:40:15.448Z,103507.53
2023-02-06T01:42:43.202Z,103507.63
2023-02-06T01:45:41.070Z,103497.03
2023-02-06T01:48:15.758Z,103487.47
2023-02-06T01:50:47.869Z,103488.31
2023-02-06T01:53:17.319Z,103485.84
2023-02-06T01:55:46.726Z,103483.22
2023-02-06T01:58:24.538Z,103480.59
2023-02-06T02:00:51.517Z,103482.56
2023-02-06T02:03:18.743Z,103474.88
2023-02-06T02:05:48.154Z,103465.59
2023-02-06T02:08:29.181Z,103457.56
2023-02-06T02:10:56.641Z,103459.44
2023-02-06T02:13:23.602Z,103475.25
2023-02-06T02:16:43.445Z,103471.69
2023-02-06T02:19:38.368Z,103459.78
2023-02-06T02:22:19.291Z,103457.44
2023-02-06T02:25:23.757Z,103439.28
2023-02-06T02:28:24.181Z,103443.84
2023-02-06T02:31:34.706Z,103435.31
2023-02-06T02:34:41.427Z,103427.56
2023-02-06T02:37:22.378Z,103418.28
2023-02-06T02:40:08.125Z,103421.47
2023-02-06T02:43:16.457Z,103422.88
2023-02-06T02:46:18.985Z,103425.22
2023-02-06T02:48:49.342Z,103433.56
2023-02-06T02:51:17.612Z,103423.44
2023-02-06T02:53:44.912Z,103422.88
2023-02-06T02:56:22.956Z,103412.97
2023-02-06T02:58:57.273Z,103407.03
2023-02-06T03:01:33.964Z,103409.94
2023-02-06T03:04:09.486Z,103405.03
2023-02-06T03:06:53.420Z,103409.91
2023-02-06T03:09:53.986Z,103409.41
2023-02-06T03:12:40.014Z,103414.28
2023-02-06T03:15:39.821Z,103426.28
2023-02-06T03:18:36.812Z,103428.41
2023-02-06T03:21:06.799Z,103430.63
2023-02-06T03:23:38.273Z,103426.69
2023-02-06T03:26:09.684Z,103425.34
2023-02-06T03:28:43.637Z,103426.44
2023-02-06T03:31:15.814Z,103403.13
2023-02-06T03:33:51.488Z,103393.06
2023-02-06T03:36:20.096Z,103388.44
2023-02-06T03:38:49.913Z,103400.63
2023-02-06T03:41:18.909Z,103408.22
2023-02-06T03:43:48.625Z,103399.28
2023-02-06T03:46:17.991Z,103394.66
2023-02-06T03:48:50.752Z,103383.09
2023-02-06T03:51:26.370Z,103397.72
2023-02-06T03:53:56.080Z,103399.19
2023-02-06T03:56:37.053Z,103411.94
2023-02-06T03:59:04.120Z,103413.50
2023-02-06T04:01:31.703Z,103420.25
2023-02-06T04:03:59.045Z,103420.69
2023-02-06T04:06:26.223Z,103411.63
2023-02-06T04:08:53.560Z,103415.63
2023-02-06T04:11:20.578Z,103426.56
2023-02-06T04:13:47.686Z,103421.97
2023-02-06T04:16:14.734Z,103410.28
2023-02-06T04:18:41.833Z,103417.66
2023-02-06T04:21:08.812Z,103404.41
2023-02-06T04:23:36.148Z,103403.03
2023-02-06T04:26:03.137Z,103393.13
2023-02-06T04:28:30.169Z,103372.06
2023-02-06T04:30:57.441Z,103373.41
2023-02-06T04:33:24.428Z,103369.72
2023-02-06T04:35:51.722Z,103361.50
2023-02-06T04:38:18.902Z,103365.59
2023-02-06T04:40:45.827Z,103369.91
2023-02-06T04:43:12.791Z,103371.72
2023-02-06T04:45:39.802Z,103363.69
2023-02-06T04:48:06.691Z,103368.97
2023-02-06T04:50:34.334Z,103374.22
2023-02-06T04:53:01.399Z,103374.75
2023-02-06T04:55:28.426Z,103368.31
2023-02-06T04:57:55.326Z,103373.47
2023-02-06T05:00:22.546Z,103377.66
2023-02-06T05:02:49.417Z,103371.34
2023-02-06T05:05:16.397Z,103359.00
2023-02-06T05:07:43.354Z,103351.34
2023-02-06T05:10:10.516Z,103363.66
2023-02-06T05:12:37.643Z,103366.50
2023-02-06T05:15:05.087Z,103377.16
2023-02-06T05:17:32.092Z,103381.59
2023-02-06T05:19:59.179Z,103372.84
2023-02-06T05:22:26.187Z,103359.78
2023-02-06T05:24:53.233Z,103359.03
2023-02-06T05:27:20.203Z,103376.13
2023-02-06T05:29:47.230Z,103372.66
2023-02-06T05:32:14.092Z,103369.69
2023-02-06T05:34:41.055Z,103367.78
2023-02-06T05:37:08.018Z,103357.16
2023-02-06T05:39:34.857Z,103362.19
2023-02-06T05:42:01.790Z,103355.34
2023-02-06T05:44:28.791Z,103350.19
2023-02-06T05:46:56.268Z,103353.56
2023-02-06T05:49:23.274Z,103358.50
2023-02-06T05:51:50.169Z,103348.06
2023-02-06T05:54:18.377Z,103360.91
2023-02-06T05:56:45.717Z,103360.81
2023-02-06T05:59:12.722Z,103368.72
2023-02-06T06:01:39.779Z,103373.88
2023-02-06T06:04:06.786Z,103384.19
2023-02-06T06:06:33.869Z,103384.81
2023-02-06T06:09:03.744Z,103383.13
2023-02-06T06:11:31.055Z,103396.19
2023-02-06T06:13:58.155Z,103397.25
2023-02-06T06:16:25.303Z,103403.47
2023-02-06T06:18:52.224Z,103401.66
2023-02-06T06:21:19.198Z,103401.78
2023-02-06T06:23:46.035Z,103403.47
2023-02-06T06:26:13.202Z,103406.09
2023-02-06T06:28:41.394Z,103393.44
2023-02-06T06:31:13.218Z,103389.63
2023-02-06T06:33:41.068Z,103399.00
2023-02-06T06:36:10.905Z,103407.53
2023-02-06T06:38:38.834Z,103394.47
2023-02-06T06:41:06.384Z,103396.88
2023-02-06T06:43:34.129Z,103398.78
2023-02-06T06:46:01.685Z,103406.56
2023-02-06T06:48:28.998Z,103409.22
2023-02-06T06:50:56.167Z,103390.75
2023-02-06T06:53:23.263Z,103394.03
2023-02-06T06:55:50.187Z,103382.63
2023-02-06T06:58:17.206Z,103379.91
2023-02-06T07:00:44.201Z,103384.84
2023-02-06T07:03:12.039Z,103376.00
2023-02-06T07:05:39.459Z,103370.38
2023-02-06T07:08:06.342Z,103368.38
2023-02-06T07:10:33.307Z,103377.00
2023-02-06T07:13:00.217Z,103369.09
2023-02-06T07:15:27.256Z,103375.09
2023-02-06T07:17:54.207Z,103374.88
2023-02-06T07:20:21.207Z,103368.44
2023-02-06T07:22:50.126Z,103380.75
2023-02-06T07:25:20.211Z,103371.56
2023-02-06T07:27:47.679Z,103376.50
2023-02-06T07:30:15.661Z,103384.28
2023-02-06T07:32:42.708Z,103372.66
2023-02-06T07:35:09.746Z,103377.50
2023-02-06T07:37:36.842Z,103376.91
2023-02-06T07:40:05.524Z,103367.44
2023-02-06T07:42:33.637Z,103374.28
2023-02-06T07:45:09.330Z,103370.19
2023-02-06T07:47:36.659Z,103366.81
2023-02-06T07:50:04.326Z,103371.66
2023-02-06T07:52:31.487Z,103374.78
2023-02-06T07:54:58.328Z,103368.31
2023-02-06T07:57:25.443Z,103354.50
2023-02-06T07:59:52.364Z,103351.03
2023-02-06T08:02:19.353Z,103379.59
2023-02-06T08:04:46.338Z,103388.50
2023-02-06T08:07:15.051Z,103385.16
2023-02-06T08:09:42.667Z,103388.81
2023-02-06T08:12:11.886Z,103384.03
2023-02-06T08:14:39.214Z,103376.72
2023-02-06T08:17:07.577Z,103376.84
2023-02-06T08:19:34.540Z,103372.28
2023-02-06T08:22:01.408Z,103372.06
2023-02-06T08:24:28.483Z,103371.94
2023-02-06T08:26:55.517Z,103380.47
2023-02-06T08:29:22.512Z,103378.31
2023-02-06T08:31:49.397Z,103373.16
2023-02-06T08:34:16.704Z,103364.88
2023-02-06T08:36:43.859Z,103374.34
2023-02-06T08:39:14.629Z,103371.47
2023-02-06T08:41:43.439Z,103372.66
2023-02-06T08:44:17.477Z,103391.06
2023-02-06T08:46:46.562Z,103375.06
2023-02-06T08:49:22.792Z,103387.69
2023-02-06T08:51:50.214Z,103378.78
2023-02-06T08:54:20.670Z,103373.97
2023-02-06T08:56:48.752Z,103374.19
2023-02-06T08:59:17.893Z,103374.53
2023-02-06T09:01:45.778Z,103363.47
2023-02-06T09:04:14.961Z,103348.66
2023-02-06T09:06:44.687Z,103363.06
2023-02-06T09:09:13.023Z,103373.13
2023-02-06T09:11:40.365Z,103366.84
2023-02-06T09:14:13.440Z,103372.19
2023-02-06T09:16:40.674Z,103383.03
2023-02-06T09:19:07.735Z,103375.41
2023-02-06T09:21:36.970Z,103392.47
2023-02-06T09:24:07.580Z,103401.44
2023-02-06T09:26:58.119Z,103409.00
2023-02-06T09:29:26.024Z,103415.59
2023-02-06T09:31:53.064Z,103398.59
2023-02-06T09:34:20.034Z,103409.91
2023-02-06T09:36:47.118Z,103423.47
2023-02-06T09:39:14.431Z,103409.72
2023-02-06T09:42:05.298Z,103418.94
2023-02-06T09:44:38.445Z,103419.78
2023-02-06T09:47:26.924Z,103439.03
2023-02-06T09:49:59.235Z,103439.03
2023-02-06T09:52:52.172Z,103438.66
2023-02-06T09:55:44.191Z,103433.59
2023-02-06T09:58:48.428Z,103438.66
2023-02-06T10:01:34.031Z,103439.47
2023-02-06T10:04:40.846Z,103453.56
2023-02-06T10:08:06.025Z,103451.31
2023-02-06T10:10:40.282Z,103446.66
2023-02-06T10:13:42.968Z,103458.81
2023-02-06T10:16:55.423Z,103448.47
2023-02-06T10:19:46.671Z,103453.44
2023-02-06T10:22:39.122Z,103450.78
2023-02-06T10:25:22.705Z,103453.94
2023-02-06T10:27:59.139Z,103453.22
2023-02-06T10:30:46.483Z,103438.31
2023-02-06T10:34:11.390Z,103436.50
2023-02-06T10:37:01.338Z,103450.72
2023-02-06T10:40:17.513Z,103445.53
2023-02-06T10:43:13.638Z,103445.09
2023-02-06T10:46:04.211Z,103442.44
2023-02-06T10:48:40.121Z,103437.88
2023-02-06T10:51:33.562Z,103434.25
2023-02-06T10:54:10.592Z,103434.25
2023-02-06T10:56:44.474Z,103438.81
2023-02-06T10:59:37.376Z,103444.13
2023-02-06T11:02:23.453Z,103449.16
2023-02-06T11:05:13.016Z,103440.25
2023-02-06T11:07:48.842Z,103436.91
2023-02-06T11:10:27.014Z,103454.34
2023-02-06T11:13:22.067Z,103457.31
2023-02-06T11:16:02.414Z,103446.72
2023-02-06T11:18:42.728Z,103448.66
2023-02-06T11:21:14.082Z,103444.44
2023-02-06T11:23:42.217Z,103454.53
2023-02-06T11:26:16.164Z,103444.25
2023-02-06T11:29:01.816Z,103452.28
2023-02-06T11:31:38.412Z,103432.13
2023-02-06T11:36:53.126Z,103444.72
2023-02-06T11:39:31.596Z,103441.44
2023-02-06T11:42:06.274Z,103465.22
2023-02-06T11:44:40.310Z,103469.72
2023-02-06T11:47:37.560Z,103467.69
2023-02-06T11:50:13.567Z,103466.06
2023-02-06T11:52:46.999Z,103475.56
2023-02-06T11:55:34.084Z,103476.88
2023-02-06T11:58:22.297Z,103461.59
2023-02-06T12:00:52.020Z,103459.13
2023-02-06T12:03:50.833Z,103472.97
2023-02-06T12:06:33.942Z,103451.50
2023-02-06T12:09:06.575Z,103457.50
2023-02-06T12:12:01.939Z,103459.19
2023-02-06T12:15:29.471Z,103459.47
2023-02-06T12:18:00.734Z,103442.72
2023-02-06T12:20:34.762Z,103454.88
2023-02-06T12:23:24.564Z,103467.31
2023-02-06T12:25:56.683Z,103467.56
2023-02-06T12:28:51.307Z,103463.09
2023-02-06T12:31:43.024Z,103456.66
2023-02-06T12:34:23.440Z,103462.88
2023-02-06T12:37:10.729Z,103463.56
2023-02-06T12:39:37.791Z,103476.69
2023-02-06T12:42:23.023Z,103477.25
2023-02-06T12:45:31.527Z,103484.16
2023-02-06T12:48:14.423Z,103471.63
2023-02-06T12:50:50.902Z,103468.59
2023-02-06T12:53:23.715Z,103466.78
2023-02-06T12:56:04.618Z,103467.50
2023-02-06T12:58:44.841Z,103457.56
2023-02-06T13:02:00.983Z,103459.25
2023-02-06T13:04:33.254Z,103459.81
2023-02-06T13:07:11.911Z,103466.09
2023-02-06T13:10:02.235Z,103467.09
2023-02-06T13:12:31.277Z,103473.94
2023-02-06T13:15:06.478Z,103473.78
2023-02-06T13:17:38.476Z,103480.63
2023-02-06T13:20:18.992Z,103467.72
2023-02-06T13:22:52.447Z,103468.66
2023-02-06T13:25:25.393Z,103477.59
2023-02-06T13:27:53.640Z,103483.56
2023-02-06T13:30:29.434Z,103489.44
2023-02-06T13:33:23.812Z,103481.13
2023-02-06T13:36:05.352Z,103487.09
2023-02-06T13:38:35.187Z,103478.66
2023-02-06T13:41:14.230Z,103492.38
2023-02-06T13:44:16.554Z,103503.69
2023-02-06T13:47:27.396Z,103503.00
2023-02-06T13:50:47.208Z,103500.78
2023-02-06T13:53:14.121Z,103510.50
2023-02-06T13:56:27.650Z,103509.41
2023-02-06T13:58:56.045Z,103504.28
2023-02-06T14:01:30.530Z,103504.03
2023-02-06T14:03:59.104Z,103502.50
2023-02-06T14:07:21.992Z,103511.47
2023-02-06T14:10:13.668Z,103513.69
2023-02-06T14:13:15.223Z,103521.25
2023-02-06T14:16:11.278Z,103513.56
2023-02-06T14:18:52.703Z,103526.59
2023-02-06T14:21:53.165Z,103529.84
2023-02-06T14:24:46.120Z,103532.38
2023-02-06T14:27:37.828Z,103534.19
2023-02-06T14:30:27.889Z,103540.34
2023-02-06T14:33:00.713Z,103554.75
2023-02-06T14:35:38.095Z,103556.53
2023-02-06T14:38:27.507Z,103562.53
2023-02-06T14:40:56.957Z,103550.03
2023-02-06T14:43:29.262Z,103559.66
2023-02-06T14:46:08.090Z,103572.38
2023-02-06T14:48:55.579Z,103567.16
2023-02-06T14:51:31.932Z,103577.22
2023-02-06T14:54:04.265Z,103561.78
2023-02-06T14:56:36.601Z,103568.03
2023-02-06T14:59:19.453Z,103576.16
2023-02-06T15:01:50.594Z,103572.81
2023-02-06T15:04:21.865Z,103582.31
2023-02-06T15:07:03.988Z,103576.56
2023-02-06T15:09:39.140Z,103584.63
2023-02-06T15:12:23.838Z,103586.63
2023-02-06T15:14:54.962Z,103581.59
2023-02-06T15:17:26.898Z,103588.09
2023-02-06T15:19:54.004Z,103583.09
2023-02-06T15:22:29.295Z,103595.44
2023-02-06T15:25:50.413Z,103594.22
2023-02-06T15:28:23.877Z,103605.44
2023-02-06T15:30:57.374Z,103606.69
2023-02-06T15:33:28.809Z,103611.31
2023-02-06T15:35:58.815Z,103618.16
2023-02-06T15:38:28.434Z,103618.88
2023-02-06T15:41:00.671Z,103614.25
2023-02-06T15:43:28.347Z,103616.88
2023-02-06T15:46:02.033Z,103620.03
2023-02-06T15:48:51.885Z,103622.66
2023-02-06T15:51:27.663Z,103623.56
2023-02-06T15:54:19.391Z,103624.44
2023-02-06T15:57:28.668Z,103624.19
2023-02-06T15:59:58.913Z,103628.78
2023-02-06T16:02:35.716Z,103636.09
2023-02-06T16:05:05.195Z,103654.97
2023-02-06T16:07:37.728Z,103651.78
2023-02-06T16:10:07.547Z,103645.94
2023-02-06T16:12:43.329Z,103638.50
2023-02-06T16:15:37.643Z,103650.22
2023-02-06T16:18:30.445Z,103656.03
2023-02-06T16:21:16.284Z,103654.75
2023-02-06T16:24:06.708Z,103657.63
2023-02-06T16:26:47.436Z,103663.91
2023-02-06T16:29:30.839Z,103651.09
2023-02-06T16:32:08.604Z,103651.09
2023-02-06T16:34:45.479Z,103656.50
2023-02-06T16:37:25.480Z,103655.63
2023-02-06T16:39:53.769Z,103652.72
2023-02-06T16:42:21.858Z,103670.38
2023-02-06T16:44:53.591Z,103672.88
2023-02-06T16:47:22.388Z,103684.22
2023-02-06T16:49:49.590Z,103679.00
2023-02-06T16:52:25.404Z,103690.97
2023-02-06T16:54:55.567Z,103689.84
2023-02-06T16:57:32.037Z,103691.38
2023-02-06T16:59:59.569Z,103698.03
2023-02-06T17:02:27.924Z,103695.22
2023-02-06T17:04:55.624Z,103699.16
2023-02-06T17:07:31.309Z,103686.72
2023-02-06T17:09:59.500Z,103700.34
2023-02-06T17:12:26.465Z,103696.53
2023-02-06T17:14:53.637Z,103695.06
2023-02-06T17:17:22.737Z,103701.63
2023-02-06T17:19:52.216Z,103710.94
2023-02-06T17:22:19.853Z,103715.78
2023-02-06T17:24:46.855Z,103707.97
2023-02-06T17:27:21.215Z,103711.91
2023-02-06T17:29:50.272Z,103706.19
2023-02-06T17:32:22.225Z,103704.63
2023-02-06T17:34:51.153Z,103711.06
2023-02-06T17:37:20.851Z,103728.97
2023-02-06T17:39:50.649Z,103724.13
2023-02-06T17:42:17.736Z,103721.91
2023-02-06T17:44:44.969Z,103721.38
2023-02-06T17:47:11.953Z,103717.25
2023-02-06T17:49:38.900Z,103727.06
2023-02-06T17:52:05.971Z,103722.22
2023-02-06T17:54:33.136Z,103733.72
2023-02-06T17:57:00.262Z,103727.88
2023-02-06T17:59:27.239Z,103735.97
2023-02-06T18:01:54.266Z,103725.66
2023-02-06T18:04:21.576Z,103719.00
2023-02-06T18:06:48.708Z,103723.81
2023-02-06T18:09:15.814Z,103714.22
2023-02-06T18:11:42.741Z,103721.28
2023-02-06T18:14:09.653Z,103715.47
2023-02-06T18:16:37.837Z,103727.06
2023-02-06T18:19:05.438Z,103722.75
2023-02-06T18:21:32.291Z,103719.66
2023-02-06T18:23:59.399Z,103717.13
2023-02-06T18:26:27.640Z,103731.25
2023-02-06T18:28:54.673Z,103719.22
2023-02-06T18:31:33.058Z,103719.34
2023-02-06T18:34:02.786Z,103717.00
2023-02-06T18:36:29.921Z,103718.88
2023-02-06T18:38:57.711Z,103717.31
2023-02-06T18:41:43.247Z,103711.28
2023-02-06T18:44:11.397Z,103714.03
2023-02-06T18:46:39.012Z,103714.97
2023-02-06T18:49:06.484Z,103713.28
2023-02-06T18:51:33.653Z,103715.25
2023-02-06T18:54:00.890Z,103709.25
2023-02-06T18:56:28.085Z,103712.94
2023-02-06T18:58:55.901Z,103709.75
2023-02-06T19:01:24.742Z,103723.00
2023-02-06T19:03:53.517Z,103728.38
2023-02-06T19:06:25.771Z,103744.38
2023-02-06T19:08:52.685Z,103741.94
2023-02-06T19:11:19.607Z,103747.41
2023-02-06T19:13:46.469Z,103738.75
2023-02-06T19:16:18.126Z,103745.75
2023-02-06T19:18:48.271Z,103742.38
2023-02-06T19:21:19.892Z,103741.66
2023-02-06T19:23:54.148Z,103752.25
2023-02-06T19:26:21.507Z,103762.97
2023-02-06T19:28:48.547Z,103750.13
2023-02-06T19:31:21.100Z,103756.41
2023-02-06T19:33:48.316Z,103758.31
2023-02-06T19:36:16.622Z,103755.00
2023-02-06T19:38:44.295Z,103757.00
2023-02-06T19:41:15.200Z,103753.63
2023-02-06T19:43:42.605Z,103755.69
2023-02-06T19:46:12.538Z,103752.50
2023-02-06T19:48:45.441Z,103763.75
2023-02-06T19:51:20.329Z,103766.69
2023-02-06T19:53:49.952Z,103772.88
2023-02-06T19:56:39.868Z,103773.06
2023-02-06T19:59:18.161Z,103775.88
2023-02-06T20:01:51.418Z,103777.66
2023-02-06T20:04:21.316Z,103771.56
2023-02-06T20:06:50.996Z,103767.34
2023-02-06T20:09:20.539Z,103761.34
2023-02-06T20:11:49.012Z,103768.38
2023-02-06T20:14:17.691Z,103788.66
2023-02-06T20:16:45.924Z,103796.44
2023-02-06T20:19:31.304Z,103782.75
2023-02-06T20:22:00.514Z,103787.16
2023-02-06T20:24:31.290Z,103782.00
2023-02-06T20:27:01.511Z,103772.41
2023-02-06T20:29:37.872Z,103766.41
2023-02-06T20:32:06.621Z,103771.09
2023-02-06T20:34:34.784Z,103782.28
2023-02-06T20:37:02.006Z,103781.50
2023-02-06T20:39:30.248Z,103772.88
2023-02-06T20:41:57.338Z,103772.22
2023-02-06T20:44:24.304Z,103777.47
2023-02-06T20:46:51.638Z,103786.19
2023-02-06T20:49:23.520Z,103786.38
2023-02-06T20:51:51.746Z,103787.31
2023-02-06T20:54:20.584Z,103784.03
2023-02-06T20:56:48.790Z,103775.31
2023-02-06T20:59:18.204Z,103781.50
2023-02-06T21:01:45.912Z,103782.53
2023-02-06T21:04:15.160Z,103790.41
2023-02-06T21:06:43.133Z,103786.34
2023-02-06T21:09:11.667Z,103789.91
2023-02-06T21:11:45.410Z,103797.03
2023-02-06T21:14:13.588Z,103797.22
2023-02-06T21:16:41.451Z,103806.13
2023-02-06T21:19:10.988Z,103812.22
2023-02-06T21:21:38.715Z,103815.88
2023-02-06T21:24:06.444Z,103806.47
2023-02-06T21:26:33.624Z,103807.41
2023-02-06T21:29:02.339Z,103817.94
2023-02-06T21:31:36.133Z,103803.09
2023-02-06T21:34:11.349Z,103820.81
2023-02-06T21:36:40.144Z,103825.41
2023-02-06T21:39:08.340Z,103823.88
2023-02-06T21:41:36.414Z,103824.81
2023-02-06T21:44:04.334Z,103817.13
2023-02-06T21:46:31.778Z,103811.19
2023-02-06T21:48:58.945Z,103809.41
2023-02-06T21:51:26.280Z,103805.28
2023-02-06T21:53:53.292Z,103801.91
2023-02-06T21:56:23.377Z,103795.78
2023-02-06T21:58:51.772Z,103795.97
2023-02-06T22:01:32.553Z,103797.00
2023-02-06T22:04:00.361Z,103802.41
2023-02-06T22:06:28.803Z,103813.94
2023-02-06T22:09:04.269Z,103814.13
2023-02-06T22:11:32.121Z,103812.44
2023-02-06T22:14:03.730Z,103805.56
2023-02-06T22:16:31.753Z,103801.44
2023-02-06T22:19:00.702Z,103812.09
2023-02-06T22:21:30.578Z,103809.56
2023-02-06T22:24:01.623Z,103807.97
2023-02-06T22:26:33.696Z,103810.75
2023-02-06T22:29:00.964Z,103812.78
2023-02-06T22:31:31.445Z,103821.44
2023-02-06T22:33:59.812Z,103819.72
2023-02-06T22:36:30.722Z,103828.53
2023-02-06T22:39:08.619Z,103834.72
2023-02-06T22:41:43.462Z,103825.25
2023-02-06T22:44:12.562Z,103819.19
2023-02-06T22:46:40.358Z,103805.41
2023-02-06T22:49:08.928Z,103813.28
2023-02-06T22:51:38.284Z,103816.81
2023-02-06T22:54:06.149Z,103813.44
2023-02-06T22:56:37.031Z,103820.56
2023-02-06T22:59:12.898Z,103817.16
2023-02-06T23:01:52.387Z,103830.19
2023-02-06T23:04:40.764Z,103830.38
2023-02-06T23:07:07.679Z,103828.00
2023-02-06T23:09:37.278Z,103829.69
2023-02-06T23:12:05.266Z,103831.56
2023-02-06T23:14:33.327Z,103821.31
2023-02-06T23:17:01.977Z,103831.91
2023-02-06T23:19:29.872Z,103831.13
2023-02-06T23:21:56.891Z,103834.84
2023-02-06T23:24:24.014Z,103833.06
2023-02-06T23:26:53.848Z,103832.22
2023-02-06T23:29:22.339Z,103834.84
2023-02-06T23:31:50.466Z,103834.94
2023-02-06T23:34:18.743Z,103842.88
2023-02-06T23:36:46.626Z,103845.50
2023-02-06T23:39:14.463Z,103861.25
2023-02-06T23:41:41.339Z,103839.50
2023-02-06T23:44:10.340Z,103850.75
2023-02-06T23:46:39.409Z,103857.09
2023-02-06T23:49:07.064Z,103859.72
2023-02-06T23:51:35.965Z,103861.50
2023-02-06T23:54:03.504Z,103841.78
2023-02-06T23:56:31.790Z,103864.19
2023-02-06T23:59:01.084Z,103849.63
